createdAt,value
2018-09-13T18:51:52.140Z,1015.17
2018-09-13T18:52:32.898Z,1015.16
2018-09-13T18:53:13.731Z,1015.16
2018-09-13T18:53:54.511Z,1015.12
2018-09-13T18:54:35.223Z,1015.12
2018-09-13T18:55:15.999Z,1015.15
2018-09-13T18:55:56.749Z,1015.17
2018-09-13T18:56:37.584Z,1015.21
2018-09-13T18:57:18.343Z,1015.17
2018-09-13T18:57:59.396Z,1015.21
2018-09-13T18:58:40.166Z,1015.25
2018-09-13T18:59:20.933Z,1015.23
2018-09-13T19:00:01.693Z,1015.24
2018-09-13T19:00:42.487Z,1015.26
2018-09-13T19:01:23.295Z,1015.24
2018-09-13T19:02:04.018Z,1015.22
2018-09-13T19:02:44.749Z,1015.26
2018-09-13T19:03:25.609Z,1015.26
2018-09-13T19:04:06.448Z,1015.3
2018-09-13T19:04:47.195Z,1015.26
2018-09-13T19:05:27.980Z,1015.32
2018-09-13T19:06:08.789Z,1015.32
2018-09-13T19:06:49.630Z,1015.35
2018-09-13T19:07:30.384Z,1015.37
2018-09-13T19:08:11.298Z,1015.38
2018-09-13T19:08:51.851Z,1015.4
2018-09-13T19:09:32.768Z,1015.41
2018-09-13T19:10:13.586Z,1015.41
2018-09-13T19:10:54.400Z,1015.39
2018-09-13T19:11:35.175Z,1015.43
2018-09-13T19:12:15.981Z,1015.42
2018-09-13T19:12:56.832Z,1015.42
2018-09-13T19:13:37.580Z,1015.37
2018-09-13T19:14:18.317Z,1015.4
2018-09-13T19:14:59.061Z,1015.41
2018-09-13T19:15:39.834Z,1015.42
2018-09-13T19:16:20.616Z,1015.43
2018-09-13T19:17:01.498Z,1015.44
2018-09-13T19:17:42.241Z,1015.45
2018-09-13T19:18:22.984Z,1015.44
2018-09-13T19:19:03.736Z,1015.44
2018-09-13T19:19:46.367Z,1015.45
2018-09-13T19:20:26.467Z,1015.43
2018-09-13T19:21:07.340Z,1015.43
2018-09-13T19:21:48.065Z,1015.45
2018-09-13T19:22:28.907Z,1015.43
2018-09-13T19:23:10.609Z,1015.48
2018-09-13T19:23:51.447Z,1015.49
2018-09-13T19:24:32.209Z,1015.43
2018-09-13T19:25:13.056Z,1015.44
2018-09-13T19:25:53.817Z,1015.46
2018-09-13T19:26:34.554Z,1015.46
2018-09-13T19:27:15.381Z,1015.45
2018-09-13T19:27:56.114Z,1015.42
2018-09-13T19:28:36.882Z,1015.47
2018-09-13T19:29:17.706Z,1015.47
2018-09-13T19:29:58.492Z,1015.47
2018-09-13T19:30:39.393Z,1015.5
2018-09-13T19:31:20.828Z,1015.53
2018-09-13T19:32:02.119Z,1015.47
2018-09-13T19:32:43.596Z,1015.51
2018-09-13T19:33:24.427Z,1015.52
2018-09-13T19:34:05.366Z,1015.5
2018-09-13T19:34:46.232Z,1015.5
2018-09-13T19:35:26.971Z,1015.53
2018-09-13T19:36:07.706Z,1015.5
2018-09-13T19:36:48.545Z,1015.49
2018-09-13T19:37:29.337Z,1015.5
2018-09-13T19:38:10.095Z,1015.48
2018-09-13T19:38:50.896Z,1015.51
2018-09-13T19:39:31.703Z,1015.48
2018-09-13T19:40:12.545Z,1015.5
2018-09-13T19:40:53.337Z,1015.53
2018-09-13T19:41:34.103Z,1015.51
2018-09-13T19:42:14.955Z,1015.51
2018-09-13T19:42:55.762Z,1015.52
2018-09-13T19:43:36.596Z,1015.55
2018-09-13T19:44:17.507Z,1015.53
2018-09-13T19:44:58.110Z,1015.53
2018-09-13T19:45:38.960Z,1015.55
2018-09-13T19:46:20.354Z,1015.56
2018-09-13T19:47:01.065Z,1015.59
2018-09-13T19:47:41.800Z,1015.59
2018-09-13T19:48:22.542Z,1015.57
2018-09-13T19:49:03.589Z,1015.59
2018-09-13T19:49:44.438Z,1015.59
2018-09-13T19:50:25.261Z,1015.58
2018-09-13T19:51:06.201Z,1015.58
2018-09-13T19:51:46.813Z,1015.59
2018-09-13T19:52:27.602Z,1015.58
2018-09-13T19:53:08.489Z,1015.57
2018-09-13T19:53:49.283Z,1015.58
2018-09-13T19:54:29.986Z,1015.62
2018-09-13T19:55:10.842Z,1015.6
2018-09-13T19:55:51.677Z,1015.59
2018-09-13T19:56:32.502Z,1015.64
2018-09-13T19:57:13.255Z,1015.64
2018-09-13T19:57:54.007Z,1015.62
2018-09-13T19:58:34.866Z,1015.61
2018-09-13T19:59:15.659Z,1015.61
2018-09-13T19:59:56.431Z,1015.64
2018-09-13T20:00:37.156Z,1015.61
2018-09-13T20:01:17.896Z,1015.65
2018-09-13T20:01:59.466Z,1015.6
2018-09-13T20:02:40.238Z,1015.61
2018-09-13T20:03:21.076Z,1015.61
2018-09-13T20:04:02.047Z,1015.61
2018-09-13T20:04:42.753Z,1015.61
2018-09-13T20:05:23.615Z,1015.59
2018-09-13T20:06:04.404Z,1015.55
2018-09-13T20:06:45.123Z,1015.57
2018-09-13T20:07:25.886Z,1015.56
2018-09-13T20:08:06.752Z,1015.6
2018-09-13T20:08:47.492Z,1015.6
2018-09-13T20:09:28.338Z,1015.62
2018-09-13T20:10:09.111Z,1015.63
2018-09-13T20:10:49.889Z,1015.59
2018-09-13T20:11:30.733Z,1015.61
2018-09-13T20:12:11.609Z,1015.62
2018-09-13T20:12:52.331Z,1015.6
2018-09-13T20:13:33.069Z,1015.65
2018-09-13T20:14:13.932Z,1015.62
2018-09-13T20:14:54.651Z,1015.62
2018-09-13T20:15:35.416Z,1015.64
2018-09-13T20:16:16.166Z,1015.67
2018-09-13T20:16:57.004Z,1015.64
2018-09-13T20:17:37.794Z,1015.62
2018-09-13T20:18:18.828Z,1015.63
2018-09-13T20:18:59.481Z,1015.59
2018-09-13T20:19:40.209Z,1015.61
2018-09-13T20:20:21.042Z,1015.63
2018-09-13T20:21:01.789Z,1015.62
2018-09-13T20:21:42.546Z,1015.63
2018-09-13T20:22:23.283Z,1015.59
2018-09-13T20:23:04.058Z,1015.57
2018-09-13T20:23:44.899Z,1015.59
2018-09-13T20:24:25.787Z,1015.6
2018-09-13T20:25:06.565Z,1015.59
2018-09-13T20:25:47.309Z,1015.55
2018-09-13T20:26:28.091Z,1015.58
2018-09-13T20:27:08.825Z,1015.59
2018-09-13T20:27:49.635Z,1015.61
2018-09-13T20:28:30.474Z,1015.57
2018-09-13T20:29:11.235Z,1015.57
2018-09-13T20:29:52.052Z,1015.56
2018-09-13T20:30:32.880Z,1015.57
2018-09-13T20:31:13.807Z,1015.56
2018-09-13T20:31:54.554Z,1015.58
2018-09-13T20:32:35.462Z,1015.56
2018-09-13T20:33:16.229Z,1015.58
2018-09-13T20:33:57.009Z,1015.58
2018-09-13T20:34:37.836Z,1015.59
2018-09-13T20:35:18.713Z,1015.56
2018-09-13T20:35:59.496Z,1015.55
2018-09-13T20:36:40.284Z,1015.55
2018-09-13T20:37:21.170Z,1015.57
2018-09-13T20:38:01.993Z,1015.55
2018-09-13T20:38:42.854Z,1015.54
2018-09-13T20:39:23.659Z,1015.53
2018-09-13T20:40:04.456Z,1015.54
2018-09-13T20:40:45.336Z,1015.56
2018-09-13T20:41:26.095Z,1015.55
2018-09-13T20:42:07.003Z,1015.56
2018-09-13T20:42:47.828Z,1015.54
2018-09-13T20:43:28.865Z,1015.56
2018-09-13T20:44:09.621Z,1015.52
2018-09-13T20:44:50.376Z,1015.54
2018-09-13T20:45:31.355Z,1015.54
2018-09-13T20:46:12.124Z,1015.58
2018-09-13T20:46:52.982Z,1015.56
2018-09-13T20:47:33.761Z,1015.55
2018-09-13T20:48:14.585Z,1015.56
2018-09-13T20:48:55.599Z,1015.52
2018-09-13T20:49:36.399Z,1015.55
2018-09-13T20:50:17.140Z,1015.56
2018-09-13T20:50:57.969Z,1015.54
2018-09-13T20:51:38.759Z,1015.5
2018-09-13T20:52:19.524Z,1015.52
2018-09-13T20:53:00.300Z,1015.49
2018-09-13T20:53:41.068Z,1015.5
2018-09-13T20:54:21.860Z,1015.51
2018-09-13T20:55:02.609Z,1015.47
2018-09-13T20:55:43.410Z,1015.5
2018-09-13T20:56:24.227Z,1015.51
2018-09-13T20:57:05.097Z,1015.51
2018-09-13T20:57:45.995Z,1015.49
2018-09-13T20:58:26.751Z,1015.44
2018-09-13T20:59:07.509Z,1015.5
2018-09-13T20:59:48.281Z,1015.45
2018-09-13T21:00:29.113Z,1015.49
2018-09-13T21:01:09.865Z,1015.46
2018-09-13T21:01:50.733Z,1015.46
2018-09-13T21:02:31.533Z,1015.48
2018-09-13T21:03:12.255Z,1015.46
2018-09-13T21:03:53.077Z,1015.45
2018-09-13T21:04:33.874Z,1015.46
2018-09-13T21:05:14.626Z,1015.5
2018-09-13T21:05:55.386Z,1015.52
2018-09-13T21:06:36.160Z,1015.5
2018-09-13T21:07:17.003Z,1015.54
2018-09-13T21:07:57.862Z,1015.51
2018-09-13T21:08:38.781Z,1015.51
2018-09-13T21:09:19.512Z,1015.53
2018-09-13T21:10:00.259Z,1015.46
2018-09-13T21:10:41.044Z,1015.49
2018-09-13T21:11:21.822Z,1015.49
2018-09-13T21:12:02.739Z,1015.49
2018-09-13T21:12:43.573Z,1015.49
2018-09-13T21:13:24.324Z,1015.45
2018-09-13T21:14:05.132Z,1015.48
2018-09-13T21:14:45.922Z,1015.47
2018-09-13T21:15:26.803Z,1015.48
2018-09-13T21:16:07.597Z,1015.48
2018-09-13T21:16:48.374Z,1015.51
2018-09-13T21:17:29.181Z,1015.46
2018-09-13T21:18:09.993Z,1015.47
2018-09-13T21:18:50.820Z,1015.49
2018-09-13T21:19:31.695Z,1015.47
2018-09-13T21:20:12.510Z,1015.51
2018-09-13T21:20:53.276Z,1015.49
2018-09-13T21:21:34.079Z,1015.49
2018-09-13T21:22:14.883Z,1015.46
2018-09-13T21:22:55.616Z,1015.46
2018-09-13T21:23:36.459Z,1015.47
2018-09-13T21:24:17.285Z,1015.45
2018-09-13T21:24:58.384Z,1015.46
2018-09-13T21:25:39.165Z,1015.46
2018-09-13T21:26:19.965Z,1015.49
2018-09-13T21:27:00.815Z,1015.45
2018-09-13T21:27:41.721Z,1015.46
2018-09-13T21:28:22.621Z,1015.44
2018-09-13T21:29:03.351Z,1015.42
2018-09-13T21:29:44.149Z,1015.45
2018-09-13T21:30:25.081Z,1015.4
2018-09-13T21:31:05.910Z,1015.4
2018-09-13T21:31:46.668Z,1015.37
2018-09-13T21:32:27.397Z,1015.4
2018-09-13T21:33:08.194Z,1015.42
2018-09-13T21:33:48.975Z,1015.38
2018-09-13T21:34:29.857Z,1015.4
2018-09-13T21:35:10.636Z,1015.39
2018-09-13T21:35:51.481Z,1015.4
2018-09-13T21:36:32.248Z,1015.37
2018-09-13T21:37:13.064Z,1015.33
2018-09-13T21:37:53.920Z,1015.35
2018-09-13T21:38:34.747Z,1015.37
2018-09-13T21:39:15.506Z,1015.41
2018-09-13T21:39:56.335Z,1015.35
2018-09-13T21:40:37.183Z,1015.36
2018-09-13T21:41:18.097Z,1015.37
2018-09-13T21:42:00.192Z,1015.39
2018-09-13T21:42:40.923Z,1015.38
2018-09-13T21:43:21.766Z,1015.35
2018-09-13T21:44:02.689Z,1015.37
2018-09-13T21:44:43.557Z,1015.34
2018-09-13T21:45:24.331Z,1015.35
2018-09-13T21:46:05.135Z,1015.35
2018-09-13T21:46:45.984Z,1015.31
2018-09-13T21:47:26.776Z,1015.31
2018-09-13T21:48:07.594Z,1015.3
2018-09-13T21:48:48.421Z,1015.3
2018-09-13T21:49:29.301Z,1015.27
2018-09-13T21:50:10.124Z,1015.24
2018-09-13T21:50:50.897Z,1015.26
2018-09-13T21:51:31.771Z,1015.29
2018-09-13T21:52:12.885Z,1015.34
2018-09-13T21:52:53.724Z,1015.3
2018-09-13T21:53:34.645Z,1015.32
2018-09-13T21:54:15.457Z,1015.3
2018-09-13T21:54:56.315Z,1015.36
2018-09-13T21:55:37.292Z,1015.3
2018-09-13T21:56:18.168Z,1015.32
2018-09-13T21:56:58.948Z,1015.29
2018-09-13T21:57:40.036Z,1015.29
2018-09-13T21:58:20.644Z,1015.3
2018-09-13T21:59:01.483Z,1015.29
2018-09-13T21:59:42.213Z,1015.25
2018-09-13T22:00:22.999Z,1015.3
2018-09-13T22:01:03.902Z,1015.28
2018-09-13T22:01:44.635Z,1015.27
2018-09-13T22:02:25.375Z,1015.25
2018-09-13T22:03:06.230Z,1015.28
2018-09-13T22:03:47.037Z,1015.29
2018-09-13T22:04:27.973Z,1015.25
2018-09-13T22:05:08.766Z,1015.3
2018-09-13T22:05:49.654Z,1015.27
2018-09-13T22:06:30.578Z,1015.26
2018-09-13T22:07:11.532Z,1015.24
2018-09-13T22:07:52.351Z,1015.24
2018-09-13T22:08:33.117Z,1015.26
2018-09-13T22:09:13.907Z,1015.26
2018-09-13T22:09:54.807Z,1015.28
2018-09-13T22:10:35.767Z,1015.28
2018-09-13T22:11:16.525Z,1015.23
2018-09-13T22:11:57.321Z,1015.26
2018-09-13T22:12:38.089Z,1015.24
2018-09-13T22:13:18.924Z,1015.29
2018-09-13T22:13:59.794Z,1015.25
2018-09-13T22:14:40.578Z,1015.28
2018-09-13T22:15:21.356Z,1015.3
2018-09-13T22:16:02.113Z,1015.28
2018-09-13T22:16:42.939Z,1015.29
2018-09-13T22:17:23.805Z,1015.27
2018-09-13T22:18:04.557Z,1015.27
2018-09-13T22:18:45.366Z,1015.28
2018-09-13T22:19:26.222Z,1015.28
2018-09-13T22:20:07.044Z,1015.29
2018-09-13T22:20:47.916Z,1015.29
2018-09-13T22:21:28.849Z,1015.28
2018-09-13T22:22:09.602Z,1015.29
2018-09-13T22:22:50.467Z,1015.31
2018-09-13T22:23:31.195Z,1015.27
2018-09-13T22:24:11.994Z,1015.28
2018-09-13T22:24:52.759Z,1015.31
2018-09-13T22:25:33.558Z,1015.29
2018-09-13T22:26:14.387Z,1015.28
2018-09-13T22:26:55.239Z,1015.29
2018-09-13T22:27:35.983Z,1015.3
2018-09-13T22:28:16.714Z,1015.32
2018-09-13T22:28:57.557Z,1015.32
2018-09-13T22:29:38.296Z,1015.29
2018-09-13T22:30:19.153Z,1015.3
2018-09-13T22:30:59.911Z,1015.3
2018-09-13T22:31:40.695Z,1015.28
2018-09-13T22:32:21.597Z,1015.3
2018-09-13T22:33:02.407Z,1015.31
2018-09-13T22:33:43.289Z,1015.28
2018-09-13T22:34:24.019Z,1015.28
2018-09-13T22:35:04.817Z,1015.31
2018-09-13T22:35:45.634Z,1015.26
2018-09-13T22:36:26.456Z,1015.26
2018-09-13T22:37:07.158Z,1015.22
2018-09-13T22:37:47.955Z,1015.22
2018-09-13T22:38:28.733Z,1015.27
2018-09-13T22:39:09.553Z,1015.28
2018-09-13T22:39:50.323Z,1015.28
2018-09-13T22:40:31.121Z,1015.3
2018-09-13T22:41:11.993Z,1015.29
2018-09-13T22:41:52.812Z,1015.26
2018-09-13T22:42:33.637Z,1015.32
2018-09-13T22:43:14.409Z,1015.28
2018-09-13T22:43:55.223Z,1015.29
2018-09-13T22:44:36.045Z,1015.28
2018-09-13T22:45:16.907Z,1015.29
2018-09-13T22:45:57.697Z,1015.22
2018-09-13T22:46:38.550Z,1015.27
2018-09-13T22:47:19.317Z,1015.2
2018-09-13T22:48:00.101Z,1015.2
2018-09-13T22:48:41.017Z,1015.24
2018-09-13T22:49:21.775Z,1015.27
2018-09-13T22:50:02.561Z,1015.23
2018-09-13T22:50:43.327Z,1015.26
2018-09-13T22:51:24.122Z,1015.25
2018-09-13T22:52:05.007Z,1015.25
2018-09-13T22:52:45.823Z,1015.3
2018-09-13T22:53:26.716Z,1015.29
2018-09-13T22:54:07.403Z,1015.26
2018-09-13T22:54:48.165Z,1015.28
2018-09-13T22:55:29.002Z,1015.28
2018-09-13T22:56:09.854Z,1015.26
2018-09-13T22:56:50.672Z,1015.3
2018-09-13T22:57:31.480Z,1015.29
2018-09-13T22:58:12.257Z,1015.3
2018-09-13T22:58:53.180Z,1015.27
2018-09-13T22:59:34.079Z,1015.33
2018-09-13T23:00:14.852Z,1015.34
2018-09-13T23:00:55.643Z,1015.32
2018-09-13T23:01:36.414Z,1015.32
2018-09-13T23:02:17.197Z,1015.33
2018-09-13T23:02:57.993Z,1015.34
2018-09-13T23:03:38.776Z,1015.34
2018-09-13T23:04:19.585Z,1015.33
2018-09-13T23:05:00.345Z,1015.34
2018-09-13T23:05:41.137Z,1015.31
2018-09-13T23:06:21.944Z,1015.34
2018-09-13T23:07:02.671Z,1015.36
2018-09-13T23:07:43.451Z,1015.32
2018-09-13T23:08:24.260Z,1015.36
2018-09-13T23:09:05.089Z,1015.39
2018-09-13T23:09:45.931Z,1015.35
2018-09-13T23:10:26.690Z,1015.34
2018-09-13T23:11:07.511Z,1015.35
2018-09-13T23:11:48.348Z,1015.36
2018-09-13T23:12:29.144Z,1015.38
2018-09-13T23:13:09.979Z,1015.38
2018-09-13T23:13:50.775Z,1015.36
2018-09-13T23:14:31.501Z,1015.33
2018-09-13T23:15:12.351Z,1015.35
2018-09-13T23:15:53.109Z,1015.34
2018-09-13T23:16:33.864Z,1015.36
2018-09-13T23:17:14.679Z,1015.36
2018-09-13T23:17:55.569Z,1015.34
2018-09-13T23:18:36.364Z,1015.35
2018-09-13T23:19:17.241Z,1015.36
2018-09-13T23:19:58.033Z,1015.34
2018-09-13T23:20:38.823Z,1015.36
2018-09-13T23:21:19.575Z,1015.34
2018-09-13T23:22:00.355Z,1015.34
2018-09-13T23:22:41.225Z,1015.34
2018-09-13T23:23:21.965Z,1015.31
2018-09-13T23:24:02.705Z,1015.34
2018-09-13T23:24:43.571Z,1015.35
2018-09-13T23:25:24.365Z,1015.28
2018-09-13T23:26:05.159Z,1015.28
2018-09-13T23:26:45.947Z,1015.31
2018-09-13T23:27:26.753Z,1015.32
2018-09-13T23:28:07.540Z,1015.3
2018-09-13T23:28:48.326Z,1015.28
2018-09-13T23:29:29.075Z,1015.28
2018-09-13T23:30:09.857Z,1015.29
2018-09-13T23:30:50.657Z,1015.29
2018-09-13T23:31:31.463Z,1015.28
2018-09-13T23:32:12.240Z,1015.29
2018-09-13T23:32:53.014Z,1015.28
2018-09-13T23:33:33.784Z,1015.27
2018-09-13T23:34:14.595Z,1015.28
2018-09-13T23:34:55.404Z,1015.26
2018-09-13T23:35:36.169Z,1015.3
2018-09-13T23:36:16.962Z,1015.3
2018-09-13T23:36:57.718Z,1015.3
2018-09-13T23:37:38.580Z,1015.28
2018-09-13T23:38:19.438Z,1015.28
2018-09-13T23:39:00.289Z,1015.27
2018-09-13T23:39:41.309Z,1015.27
2018-09-13T23:40:21.892Z,1015.28
2018-09-13T23:41:02.561Z,1015.3
2018-09-13T23:41:43.372Z,1015.29
2018-09-13T23:42:24.127Z,1015.3
2018-09-13T23:43:04.879Z,1015.3
2018-09-13T23:43:45.748Z,1015.31
2018-09-13T23:44:26.536Z,1015.24
2018-09-13T23:45:07.274Z,1015.3
2018-09-13T23:45:48.068Z,1015.26
2018-09-13T23:46:28.937Z,1015.28
2018-09-13T23:47:09.700Z,1015.27
2018-09-13T23:47:50.488Z,1015.28
2018-09-13T23:48:31.232Z,1015.27
2018-09-13T23:49:12.067Z,1015.24
2018-09-13T23:49:52.909Z,1015.26
2018-09-13T23:50:33.656Z,1015.28
2018-09-13T23:51:14.409Z,1015.32
2018-09-13T23:51:55.156Z,1015.29
2018-09-13T23:52:36.057Z,1015.3
2018-09-13T23:53:16.817Z,1015.3
2018-09-13T23:53:57.634Z,1015.31
2018-09-13T23:54:38.410Z,1015.31
2018-09-13T23:55:19.148Z,1015.33
2018-09-13T23:55:59.929Z,1015.34
2018-09-13T23:56:40.688Z,1015.33
2018-09-13T23:57:21.493Z,1015.31
2018-09-13T23:58:02.242Z,1015.33
2018-09-13T23:58:42.997Z,1015.39
2018-09-13T23:59:23.853Z,1015.33
